首页
METAR-TAF:

METAR-TAF

机场 :

法兰克福机场

法兰克福, 德国

纬度: 50-03N, 经度: 008-36E, 海拔: 111米

当前天气观测

该预报发布于24分钟前的21:20 UTC
风速7节,风向南转西南
温度 3°C
湿度 81%
气压 1016 hPa
能见度10公里或以上
少量云层高于3100英尺

METAR: EDDF 292120Z 21007KT 9999 FEW031 03/00 Q1016 NOSIG

时间: 22:44 (21:44 UTC)

预报

该预报发布于4小时和44分钟前的17:00 UTC
预报有效从29日的 18点(UTC)到 30日的 24点(UTC)
风速8节,风向南转西南
能见度10公里或以上
散云层高于3000英尺
成为
从 30日的 14点(UTC)到 30日的 17点(UTC)
多云层高于2500英尺
短暂存在
从 30日的 20点(UTC)到 30日的 24点(UTC)
多云层高于1200英尺

TAF: EDDF 291700Z 2918/3024 21008KT 9999 SCT030 BECMG 3014/3017 BKN025 TEMPO 3020/3024 BKN012

超过4000个机场的气象观测和天气预报(METAR&TAF报告)。

可查询的气象台以黄色和红色小点在地图上表示。

将鼠标移到小点上方,可查看气象台名称。

然后点击查看天气观测和预报。

如需切换地图:点击带黑十字的绿色按钮放大地图;点击带横线的绿色按钮缩小地图;或者点击绿色箭头查看邻近地区的地图。


METAR-TAF: